sensor_id;sensor_type;location;lat;lon;timestamp;P1;durP1;ratioP1;P2;durP2;ratioP2
77733;SDS011;66902;41.720;44.796;2023-03-13T00:01:20;10.20;;;4.40;;
77733;SDS011;66902;41.720;44.796;2023-03-13T00:03:51;9.60;;;3.70;;
77733;SDS011;66902;41.720;44.796;2023-03-13T00:06:23;16.70;;;3.80;;
77733;SDS011;66902;41.720;44.796;2023-03-13T00:08:54;13.70;;;4.70;;
77733;SDS011;66902;41.720;44.796;2023-03-13T00:11:27;8.40;;;4.20;;
77733;SDS011;66902;41.720;44.796;2023-03-13T00:13:58;10.60;;;4.10;;
77733;SDS011;66902;41.720;44.796;2023-03-13T00:16:30;5.80;;;4.60;;
77733;SDS011;66902;41.720;44.796;2023-03-13T00:19:02;12.10;;;4.90;;
77733;SDS011;66902;41.720;44.796;2023-03-13T00:21:33;15.10;;;5.20;;
77733;SDS011;66902;41.720;44.796;2023-03-13T00:24:05;10.60;;;4.50;;
77733;SDS011;66902;41.720;44.796;2023-03-13T00:26:37;17.60;;;4.80;;
77733;SDS011;66902;41.720;44.796;2023-03-13T00:29:08;7.20;;;4.80;;
77733;SDS011;66902;41.720;44.796;2023-03-13T00:31:38;11.20;;;4.40;;
77733;SDS011;66902;41.720;44.796;2023-03-13T00:34:08;6.40;;;4.30;;
77733;SDS011;66902;41.720;44.796;2023-03-13T00:36:39;12.00;;;5.00;;
77733;SDS011;66902;41.720;44.796;2023-03-13T00:39:09;17.50;;;4.30;;
77733;SDS011;66902;41.720;44.796;2023-03-13T00:41:39;9.80;;;4.20;;
77733;SDS011;66902;41.720;44.796;2023-03-13T00:44:10;13.60;;;5.10;;
77733;SDS011;66902;41.720;44.796;2023-03-13T00:46:41;9.70;;;4.50;;
77733;SDS011;66902;41.720;44.796;2023-03-13T00:49:11;10.50;;;4.50;;
77733;SDS011;66902;41.720;44.796;2023-03-13T00:51:41;8.20;;;4.70;;
77733;SDS011;66902;41.720;44.796;2023-03-13T00:54:12;8.70;;;5.30;;
77733;SDS011;66902;41.720;44.796;2023-03-13T00:56:42;10.70;;;4.20;;
77733;SDS011;66902;41.720;44.796;2023-03-13T00:59:13;14.80;;;4.40;;
77733;SDS011;66902;41.720;44.796;2023-03-13T01:01:44;8.80;;;4.30;;
77733;SDS011;66902;41.720;44.796;2023-03-13T01:04:15;9.70;;;5.10;;
77733;SDS011;66902;41.720;44.796;2023-03-13T01:06:46;9.60;;;4.50;;
77733;SDS011;66902;41.720;44.796;2023-03-13T01:09:16;13.90;;;6.00;;
77733;SDS011;66902;41.720;44.796;2023-03-13T01:11:47;6.80;;;4.90;;
77733;SDS011;66902;41.720;44.796;2023-03-13T01:14:18;14.60;;;4.30;;
77733;SDS011;66902;41.720;44.796;2023-03-13T01:16:49;8.20;;;4.70;;
77733;SDS011;66902;41.720;44.796;2023-03-13T01:19:19;11.00;;;4.50;;
77733;SDS011;66902;41.720;44.796;2023-03-13T01:21:50;6.30;;;4.30;;
77733;SDS011;66902;41.720;44.796;2023-03-13T01:24:20;7.70;;;5.00;;
77733;SDS011;66902;41.720;44.796;2023-03-13T01:26:51;11.50;;;5.20;;
77733;SDS011;66902;41.720;44.796;2023-03-13T01:29:22;11.50;;;4.90;;
77733;SDS011;66902;41.720;44.796;2023-03-13T01:31:52;8.10;;;5.40;;
77733;SDS011;66902;41.720;44.796;2023-03-13T01:34:22;5.80;;;4.80;;
77733;SDS011;66902;41.720;44.796;2023-03-13T01:36:52;8.50;;;5.20;;
77733;SDS011;66902;41.720;44.796;2023-03-13T01:39:23;11.10;;;4.50;;
77733;SDS011;66902;41.720;44.796;2023-03-13T01:41:53;11.80;;;6.00;;
77733;SDS011;66902;41.720;44.796;2023-03-13T01:44:24;13.50;;;5.60;;
77733;SDS011;66902;41.720;44.796;2023-03-13T01:46:55;11.80;;;5.20;;
77733;SDS011;66902;41.720;44.796;2023-03-13T01:49:26;11.20;;;4.00;;
77733;SDS011;66902;41.720;44.796;2023-03-13T01:52:00;6.40;;;4.50;;
77733;SDS011;66902;41.720;44.796;2023-03-13T01:54:33;12.80;;;5.00;;
77733;SDS011;66902;41.720;44.796;2023-03-13T01:57:08;16.40;;;5.30;;
77733;SDS011;66902;41.720;44.796;2023-03-13T01:59:43;9.20;;;5.00;;
77733;SDS011;66902;41.720;44.796;2023-03-13T02:02:15;16.10;;;5.10;;
77733;SDS011;66902;41.720;44.796;2023-03-13T02:04:46;11.80;;;5.00;;
77733;SDS011;66902;41.720;44.796;2023-03-13T02:07:20;9.00;;;5.30;;
77733;SDS011;66902;41.720;44.796;2023-03-13T02:09:54;11.90;;;5.80;;
77733;SDS011;66902;41.720;44.796;2023-03-13T02:12:28;11.10;;;7.80;;
77733;SDS011;66902;41.720;44.796;2023-03-13T02:15:01;19.90;;;8.80;;
77733;SDS011;66902;41.720;44.796;2023-03-13T02:17:33;14.50;;;8.90;;
77733;SDS011;66902;41.720;44.796;2023-03-13T02:20:05;11.80;;;8.10;;
77733;SDS011;66902;41.720;44.796;2023-03-13T02:22:38;10.10;;;8.10;;
77733;SDS011;66902;41.720;44.796;2023-03-13T02:25:14;17.00;;;7.40;;
77733;SDS011;66902;41.720;44.796;2023-03-13T02:27:56;11.80;;;5.40;;
77733;SDS011;66902;41.720;44.796;2023-03-13T02:30:28;8.60;;;5.70;;
77733;SDS011;66902;41.720;44.796;2023-03-13T02:32:59;14.40;;;5.10;;
77733;SDS011;66902;41.720;44.796;2023-03-13T02:35:30;8.50;;;5.00;;
77733;SDS011;66902;41.720;44.796;2023-03-13T02:38:03;11.40;;;5.60;;
77733;SDS011;66902;41.720;44.796;2023-03-13T02:40:36;20.90;;;6.50;;
77733;SDS011;66902;41.720;44.796;2023-03-13T02:43:08;10.10;;;5.70;;
77733;SDS011;66902;41.720;44.796;2023-03-13T02:45:40;11.10;;;5.40;;
77733;SDS011;66902;41.720;44.796;2023-03-13T02:48:10;10.00;;;5.50;;
77733;SDS011;66902;41.720;44.796;2023-03-13T02:50:41;15.70;;;5.60;;
77733;SDS011;66902;41.720;44.796;2023-03-13T02:53:11;15.10;;;6.70;;
77733;SDS011;66902;41.720;44.796;2023-03-13T02:55:42;18.70;;;6.90;;
77733;SDS011;66902;41.720;44.796;2023-03-13T02:58:12;13.00;;;5.80;;
77733;SDS011;66902;41.720;44.796;2023-03-13T03:00:42;19.60;;;6.10;;
77733;SDS011;66902;41.720;44.796;2023-03-13T03:03:12;11.30;;;5.50;;
77733;SDS011;66902;41.720;44.796;2023-03-13T03:05:43;17.30;;;5.90;;
77733;SDS011;66902;41.720;44.796;2023-03-13T03:08:14;15.30;;;6.00;;
77733;SDS011;66902;41.720;44.796;2023-03-13T03:10:44;8.80;;;5.30;;
77733;SDS011;66902;41.720;44.796;2023-03-13T03:13:15;16.30;;;6.30;;
77733;SDS011;66902;41.720;44.796;2023-03-13T03:15:45;13.20;;;6.40;;
77733;SDS011;66902;41.720;44.796;2023-03-13T03:18:16;15.80;;;5.90;;
77733;SDS011;66902;41.720;44.796;2023-03-13T03:20:46;6.90;;;5.10;;
77733;SDS011;66902;41.720;44.796;2023-03-13T03:23:16;18.00;;;7.30;;
77733;SDS011;66902;41.720;44.796;2023-03-13T03:25:47;19.60;;;6.30;;
77733;SDS011;66902;41.720;44.796;2023-03-13T03:28:17;25.10;;;6.60;;
77733;SDS011;66902;41.720;44.796;2023-03-13T03:30:47;13.60;;;6.50;;
77733;SDS011;66902;41.720;44.796;2023-03-13T03:33:18;12.10;;;7.10;;
77733;SDS011;66902;41.720;44.796;2023-03-13T03:35:48;15.20;;;6.90;;
77733;SDS011;66902;41.720;44.796;2023-03-13T03:38:19;11.60;;;5.80;;
77733;SDS011;66902;41.720;44.796;2023-03-13T03:40:49;19.50;;;6.50;;
77733;SDS011;66902;41.720;44.796;2023-03-13T03:43:19;15.90;;;7.20;;
77733;SDS011;66902;41.720;44.796;2023-03-13T03:45:49;23.40;;;6.60;;
77733;SDS011;66902;41.720;44.796;2023-03-13T03:48:20;15.20;;;6.70;;
77733;SDS011;66902;41.720;44.796;2023-03-13T03:50:51;11.80;;;6.20;;
77733;SDS011;66902;41.720;44.796;2023-03-13T03:53:21;19.10;;;6.00;;
77733;SDS011;66902;41.720;44.796;2023-03-13T03:55:51;21.40;;;7.40;;
77733;SDS011;66902;41.720;44.796;2023-03-13T03:58:22;16.00;;;8.40;;
77733;SDS011;66902;41.720;44.796;2023-03-13T04:00:52;17.10;;;6.30;;
77733;SDS011;66902;41.720;44.796;2023-03-13T04:03:26;11.90;;;6.40;;
77733;SDS011;66902;41.720;44.796;2023-03-13T04:05:56;21.10;;;7.60;;
77733;SDS011;66902;41.720;44.796;2023-03-13T04:08:26;13.10;;;6.70;;
77733;SDS011;66902;41.720;44.796;2023-03-13T04:10:56;7.90;;;5.30;;
77733;SDS011;66902;41.720;44.796;2023-03-13T04:13:29;13.10;;;6.30;;
77733;SDS011;66902;41.720;44.796;2023-03-13T04:16:04;9.70;;;5.00;;
77733;SDS011;66902;41.720;44.796;2023-03-13T04:18:36;8.50;;;5.90;;
77733;SDS011;66902;41.720;44.796;2023-03-13T04:21:06;20.50;;;6.90;;
77733;SDS011;66902;41.720;44.796;2023-03-13T04:23:37;10.60;;;6.60;;
77733;SDS011;66902;41.720;44.796;2023-03-13T04:26:07;8.80;;;6.20;;
77733;SDS011;66902;41.720;44.796;2023-03-13T04:28:37;19.30;;;7.70;;
77733;SDS011;66902;41.720;44.796;2023-03-13T04:31:08;20.80;;;6.20;;
77733;SDS011;66902;41.720;44.796;2023-03-13T04:33:38;15.70;;;6.70;;
77733;SDS011;66902;41.720;44.796;2023-03-13T04:36:09;9.00;;;6.20;;
77733;SDS011;66902;41.720;44.796;2023-03-13T04:38:39;12.40;;;5.80;;
77733;SDS011;66902;41.720;44.796;2023-03-13T04:41:09;9.20;;;5.60;;
77733;SDS011;66902;41.720;44.796;2023-03-13T04:43:40;11.20;;;6.60;;
77733;SDS011;66902;41.720;44.796;2023-03-13T04:46:10;22.60;;;6.40;;
77733;SDS011;66902;41.720;44.796;2023-03-13T04:48:40;13.10;;;6.60;;
77733;SDS011;66902;41.720;44.796;2023-03-13T04:51:11;10.00;;;4.90;;
77733;SDS011;66902;41.720;44.796;2023-03-13T04:53:41;8.70;;;4.60;;
77733;SDS011;66902;41.720;44.796;2023-03-13T04:56:11;10.10;;;5.40;;
77733;SDS011;66902;41.720;44.796;2023-03-13T04:59:09;9.80;;;6.00;;
77733;SDS011;66902;41.720;44.796;2023-03-13T05:01:41;14.10;;;5.50;;
77733;SDS011;66902;41.720;44.796;2023-03-13T05:04:12;11.60;;;5.80;;
77733;SDS011;66902;41.720;44.796;2023-03-13T05:06:43;7.80;;;4.90;;
77733;SDS011;66902;41.720;44.796;2023-03-13T05:09:13;10.50;;;4.80;;
77733;SDS011;66902;41.720;44.796;2023-03-13T05:11:44;8.90;;;5.00;;
77733;SDS011;66902;41.720;44.796;2023-03-13T05:14:16;9.20;;;5.20;;
77733;SDS011;66902;41.720;44.796;2023-03-13T05:16:47;10.50;;;4.70;;
77733;SDS011;66902;41.720;44.796;2023-03-13T05:19:17;18.40;;;5.30;;
77733;SDS011;66902;41.720;44.796;2023-03-13T05:21:48;9.10;;;5.50;;
77733;SDS011;66902;41.720;44.796;2023-03-13T05:24:18;18.10;;;4.60;;
77733;SDS011;66902;41.720;44.796;2023-03-13T05:26:48;14.80;;;5.40;;
77733;SDS011;66902;41.720;44.796;2023-03-13T05:29:19;10.30;;;5.20;;
77733;SDS011;66902;41.720;44.796;2023-03-13T05:31:49;14.80;;;5.40;;
77733;SDS011;66902;41.720;44.796;2023-03-13T05:34:20;15.90;;;5.60;;
77733;SDS011;66902;41.720;44.796;2023-03-13T05:36:50;21.20;;;4.60;;
77733;SDS011;66902;41.720;44.796;2023-03-13T05:39:21;7.90;;;5.20;;
77733;SDS011;66902;41.720;44.796;2023-03-13T05:41:51;9.70;;;4.80;;
77733;SDS011;66902;41.720;44.796;2023-03-13T05:44:22;13.10;;;6.50;;
77733;SDS011;66902;41.720;44.796;2023-03-13T05:46:52;11.00;;;3.70;;
77733;SDS011;66902;41.720;44.796;2023-03-13T05:49:22;4.60;;;2.50;;
77733;SDS011;66902;41.720;44.796;2023-03-13T05:51:52;9.50;;;3.90;;
77733;SDS011;66902;41.720;44.796;2023-03-13T05:54:23;11.30;;;4.20;;
77733;SDS011;66902;41.720;44.796;2023-03-13T05:56:53;7.90;;;3.00;;
77733;SDS011;66902;41.720;44.796;2023-03-13T05:59:24;8.40;;;3.00;;
77733;SDS011;66902;41.720;44.796;2023-03-13T06:01:54;5.90;;;3.00;;
77733;SDS011;66902;41.720;44.796;2023-03-13T06:04:24;4.20;;;2.50;;
77733;SDS011;66902;41.720;44.796;2023-03-13T06:06:54;6.10;;;3.40;;
77733;SDS011;66902;41.720;44.796;2023-03-13T06:09:25;7.90;;;3.70;;
77733;SDS011;66902;41.720;44.796;2023-03-13T06:11:55;9.60;;;3.40;;
77733;SDS011;66902;41.720;44.796;2023-03-13T06:14:26;6.80;;;3.60;;
77733;SDS011;66902;41.720;44.796;2023-03-13T06:16:57;7.60;;;3.50;;
77733;SDS011;66902;41.720;44.796;2023-03-13T06:19:27;10.30;;;3.90;;
77733;SDS011;66902;41.720;44.796;2023-03-13T06:21:58;8.30;;;3.80;;
77733;SDS011;66902;41.720;44.796;2023-03-13T06:24:28;13.40;;;4.80;;
77733;SDS011;66902;41.720;44.796;2023-03-13T06:27:00;8.90;;;4.90;;
77733;SDS011;66902;41.720;44.796;2023-03-13T06:29:30;17.60;;;5.40;;
77733;SDS011;66902;41.720;44.796;2023-03-13T06:32:00;15.70;;;5.70;;
77733;SDS011;66902;41.720;44.796;2023-03-13T06:34:31;8.70;;;5.30;;
77733;SDS011;66902;41.720;44.796;2023-03-13T06:37:01;8.50;;;4.80;;
77733;SDS011;66902;41.720;44.796;2023-03-13T06:39:32;5.90;;;4.50;;
77733;SDS011;66902;41.720;44.796;2023-03-13T06:42:02;10.90;;;4.30;;
77733;SDS011;66902;41.720;44.796;2023-03-13T06:44:34;5.70;;;4.10;;
77733;SDS011;66902;41.720;44.796;2023-03-13T06:47:04;5.50;;;2.90;;
77733;SDS011;66902;41.720;44.796;2023-03-13T06:49:35;7.10;;;3.70;;
77733;SDS011;66902;41.720;44.796;2023-03-13T06:52:05;8.30;;;3.30;;
77733;SDS011;66902;41.720;44.796;2023-03-13T06:54:36;7.40;;;3.40;;
77733;SDS011;66902;41.720;44.796;2023-03-13T06:57:06;7.00;;;2.60;;
77733;SDS011;66902;41.720;44.796;2023-03-13T06:59:36;4.50;;;3.10;;
77733;SDS011;66902;41.720;44.796;2023-03-13T07:02:08;8.00;;;4.20;;
77733;SDS011;66902;41.720;44.796;2023-03-13T07:04:39;8.10;;;2.40;;
77733;SDS011;66902;41.720;44.796;2023-03-13T07:07:12;4.40;;;2.40;;
77733;SDS011;66902;41.720;44.796;2023-03-13T07:09:58;6.90;;;4.00;;
77733;SDS011;66902;41.720;44.796;2023-03-13T07:12:29;8.20;;;3.10;;
77733;SDS011;66902;41.720;44.796;2023-03-13T07:14:59;6.50;;;2.80;;
77733;SDS011;66902;41.720;44.796;2023-03-13T07:17:29;5.60;;;2.50;;
77733;SDS011;66902;41.720;44.796;2023-03-13T07:20:00;4.00;;;2.60;;
77733;SDS011;66902;41.720;44.796;2023-03-13T07:22:32;6.20;;;3.30;;
77733;SDS011;66902;41.720;44.796;2023-03-13T07:25:02;5.10;;;2.60;;
77733;SDS011;66902;41.720;44.796;2023-03-13T07:27:33;9.60;;;2.70;;
77733;SDS011;66902;41.720;44.796;2023-03-13T07:30:06;6.00;;;3.20;;
77733;SDS011;66902;41.720;44.796;2023-03-13T07:32:37;4.40;;;2.20;;
77733;SDS011;66902;41.720;44.796;2023-03-13T07:35:08;7.30;;;2.40;;
77733;SDS011;66902;41.720;44.796;2023-03-13T07:37:39;8.60;;;2.30;;
77733;SDS011;66902;41.720;44.796;2023-03-13T07:40:10;5.50;;;3.30;;
77733;SDS011;66902;41.720;44.796;2023-03-13T07:42:41;4.10;;;2.90;;
77733;SDS011;66902;41.720;44.796;2023-03-13T07:45:12;10.60;;;3.80;;
77733;SDS011;66902;41.720;44.796;2023-03-13T07:47:42;6.80;;;2.50;;
77733;SDS011;66902;41.720;44.796;2023-03-13T07:50:13;10.70;;;2.60;;
77733;SDS011;66902;41.720;44.796;2023-03-13T07:52:43;3.90;;;3.20;;
77733;SDS011;66902;41.720;44.796;2023-03-13T07:55:13;7.60;;;3.50;;
77733;SDS011;66902;41.720;44.796;2023-03-13T07:57:44;5.30;;;2.50;;
77733;SDS011;66902;41.720;44.796;2023-03-13T08:00:15;7.10;;;3.20;;
77733;SDS011;66902;41.720;44.796;2023-03-13T08:02:47;5.30;;;3.00;;
77733;SDS011;66902;41.720;44.796;2023-03-13T08:05:17;5.10;;;2.40;;
77733;SDS011;66902;41.720;44.796;2023-03-13T08:07:48;9.40;;;3.20;;
77733;SDS011;66902;41.720;44.796;2023-03-13T08:10:19;5.00;;;4.10;;
77733;SDS011;66902;41.720;44.796;2023-03-13T08:12:49;5.00;;;3.40;;
77733;SDS011;66902;41.720;44.796;2023-03-13T08:15:19;6.50;;;4.60;;
77733;SDS011;66902;41.720;44.796;2023-03-13T08:17:53;7.80;;;3.10;;
77733;SDS011;66902;41.720;44.796;2023-03-13T08:20:23;11.20;;;2.70;;
77733;SDS011;66902;41.720;44.796;2023-03-13T08:22:54;5.00;;;4.20;;
77733;SDS011;66902;41.720;44.796;2023-03-13T08:25:25;6.70;;;3.60;;
77733;SDS011;66902;41.720;44.796;2023-03-13T08:27:56;7.60;;;5.00;;
77733;SDS011;66902;41.720;44.796;2023-03-13T08:30:29;7.70;;;3.10;;
77733;SDS011;66902;41.720;44.796;2023-03-13T08:33:00;9.40;;;3.90;;
77733;SDS011;66902;41.720;44.796;2023-03-13T08:35:34;7.30;;;4.50;;
77733;SDS011;66902;41.720;44.796;2023-03-13T08:38:05;9.00;;;3.80;;
77733;SDS011;66902;41.720;44.796;2023-03-13T08:40:35;6.40;;;3.40;;
77733;SDS011;66902;41.720;44.796;2023-03-13T08:43:05;9.60;;;4.50;;
77733;SDS011;66902;41.720;44.796;2023-03-13T08:45:36;8.20;;;3.90;;
77733;SDS011;66902;41.720;44.796;2023-03-13T08:48:06;6.80;;;3.70;;
77733;SDS011;66902;41.720;44.796;2023-03-13T08:50:37;6.10;;;3.90;;
77733;SDS011;66902;41.720;44.796;2023-03-13T08:53:07;17.80;;;4.60;;
77733;SDS011;66902;41.720;44.796;2023-03-13T08:55:37;19.20;;;4.00;;
77733;SDS011;66902;41.720;44.796;2023-03-13T08:58:08;7.30;;;3.70;;
77733;SDS011;66902;41.720;44.796;2023-03-13T09:00:38;6.60;;;4.30;;
77733;SDS011;66902;41.720;44.796;2023-03-13T09:03:09;7.30;;;4.00;;
77733;SDS011;66902;41.720;44.796;2023-03-13T09:05:39;6.70;;;3.70;;
77733;SDS011;66902;41.720;44.796;2023-03-13T09:08:22;5.60;;;3.60;;
77733;SDS011;66902;41.720;44.796;2023-03-13T09:10:56;4.90;;;3.50;;
77733;SDS011;66902;41.720;44.796;2023-03-13T09:13:27;8.20;;;3.60;;
77733;SDS011;66902;41.720;44.796;2023-03-13T09:15:58;8.60;;;4.20;;
77733;SDS011;66902;41.720;44.796;2023-03-13T09:18:30;6.50;;;5.30;;
77733;SDS011;66902;41.720;44.796;2023-03-13T09:21:01;10.80;;;4.90;;
77733;SDS011;66902;41.720;44.796;2023-03-13T09:23:33;8.00;;;4.60;;
77733;SDS011;66902;41.720;44.796;2023-03-13T09:26:04;12.90;;;6.80;;
77733;SDS011;66902;41.720;44.796;2023-03-13T09:28:35;6.10;;;4.30;;
77733;SDS011;66902;41.720;44.796;2023-03-13T09:31:06;10.00;;;4.20;;
77733;SDS011;66902;41.720;44.796;2023-03-13T09:33:38;17.40;;;4.90;;
77733;SDS011;66902;41.720;44.796;2023-03-13T09:36:08;7.30;;;4.30;;
77733;SDS011;66902;41.720;44.796;2023-03-13T09:38:40;9.50;;;4.80;;
77733;SDS011;66902;41.720;44.796;2023-03-13T09:44:03;10.80;;;6.50;;
77733;SDS011;66902;41.720;44.796;2023-03-13T09:46:38;5.50;;;4.50;;
77733;SDS011;66902;41.720;44.796;2023-03-13T09:49:14;9.40;;;4.30;;
77733;SDS011;66902;41.720;44.796;2023-03-13T09:51:52;9.00;;;5.30;;
77733;SDS011;66902;41.720;44.796;2023-03-13T09:54:25;14.40;;;6.10;;
77733;SDS011;66902;41.720;44.796;2023-03-13T09:57:01;8.50;;;4.60;;
77733;SDS011;66902;41.720;44.796;2023-03-13T09:59:34;8.90;;;5.10;;
77733;SDS011;66902;41.720;44.796;2023-03-13T10:02:19;16.80;;;5.20;;
77733;SDS011;66902;41.720;44.796;2023-03-13T10:05:02;12.60;;;4.70;;
77733;SDS011;66902;41.720;44.796;2023-03-13T10:07:36;16.00;;;6.30;;
77733;SDS011;66902;41.720;44.796;2023-03-13T10:10:11;8.50;;;4.90;;
77733;SDS011;66902;41.720;44.796;2023-03-13T10:12:44;6.10;;;4.90;;
77733;SDS011;66902;41.720;44.796;2023-03-13T10:18:10;12.40;;;4.90;;
77733;SDS011;66902;41.720;44.796;2023-03-13T10:20:42;8.40;;;5.30;;
77733;SDS011;66902;41.720;44.796;2023-03-13T10:23:17;10.40;;;6.60;;
77733;SDS011;66902;41.720;44.796;2023-03-13T10:25:49;10.70;;;5.90;;
77733;SDS011;66902;41.720;44.796;2023-03-13T10:28:20;11.00;;;5.30;;
77733;SDS011;66902;41.720;44.796;2023-03-13T10:30:52;8.60;;;5.90;;
77733;SDS011;66902;41.720;44.796;2023-03-13T10:33:26;10.10;;;5.70;;
77733;SDS011;66902;41.720;44.796;2023-03-13T10:36:02;14.40;;;7.70;;
77733;SDS011;66902;41.720;44.796;2023-03-13T10:38:47;12.20;;;5.30;;
77733;SDS011;66902;41.720;44.796;2023-03-13T10:41:20;9.00;;;5.40;;
77733;SDS011;66902;41.720;44.796;2023-03-13T10:43:58;5.40;;;4.60;;
77733;SDS011;66902;41.720;44.796;2023-03-13T10:46:31;7.40;;;4.60;;
77733;SDS011;66902;41.720;44.796;2023-03-13T10:49:03;13.90;;;4.70;;
77733;SDS011;66902;41.720;44.796;2023-03-13T10:51:45;12.60;;;4.40;;
77733;SDS011;66902;41.720;44.796;2023-03-13T10:54:20;17.90;;;5.30;;
77733;SDS011;66902;41.720;44.796;2023-03-13T10:57:06;11.90;;;6.10;;
77733;SDS011;66902;41.720;44.796;2023-03-13T10:59:40;11.50;;;4.80;;
77733;SDS011;66902;41.720;44.796;2023-03-13T11:02:22;7.60;;;4.60;;
77733;SDS011;66902;41.720;44.796;2023-03-13T11:04:56;9.30;;;4.80;;
77733;SDS011;66902;41.720;44.796;2023-03-13T11:07:27;11.60;;;5.60;;
77733;SDS011;66902;41.720;44.796;2023-03-13T11:10:05;11.20;;;5.50;;
77733;SDS011;66902;41.720;44.796;2023-03-13T11:12:47;22.40;;;6.40;;
77733;SDS011;66902;41.720;44.796;2023-03-13T11:15:19;13.50;;;5.60;;
77733;SDS011;66902;41.720;44.796;2023-03-13T11:17:56;9.50;;;6.20;;
77733;SDS011;66902;41.720;44.796;2023-03-13T11:20:29;10.50;;;6.00;;
77733;SDS011;66902;41.720;44.796;2023-03-13T11:23:09;19.20;;;7.00;;
77733;SDS011;66902;41.720;44.796;2023-03-13T11:25:47;11.40;;;6.90;;
77733;SDS011;66902;41.720;44.796;2023-03-13T11:28:27;14.40;;;6.80;;
77733;SDS011;66902;41.720;44.796;2023-03-13T11:31:10;13.00;;;6.80;;
77733;SDS011;66902;41.720;44.796;2023-03-13T11:33:47;19.00;;;8.40;;
77733;SDS011;66902;41.720;44.796;2023-03-13T11:36:21;13.10;;;8.20;;
77733;SDS011;66902;41.720;44.796;2023-03-13T11:38:57;9.80;;;7.40;;
77733;SDS011;66902;41.720;44.796;2023-03-13T11:41:40;13.30;;;7.40;;
77733;SDS011;66902;41.720;44.796;2023-03-13T11:44:28;13.60;;;7.10;;
77733;SDS011;66902;41.720;44.796;2023-03-13T11:47:11;11.70;;;6.80;;
77733;SDS011;66902;41.720;44.796;2023-03-13T11:49:52;16.00;;;7.60;;
77733;SDS011;66902;41.720;44.796;2023-03-13T11:52:42;17.60;;;7.80;;
77733;SDS011;66902;41.720;44.796;2023-03-13T11:55:24;12.40;;;7.00;;
77733;SDS011;66902;41.720;44.796;2023-03-13T11:58:03;10.80;;;6.30;;
77733;SDS011;66902;41.720;44.796;2023-03-13T12:00:43;26.90;;;7.40;;
77733;SDS011;66902;41.720;44.796;2023-03-13T12:03:19;13.60;;;7.90;;
77733;SDS011;66902;41.720;44.796;2023-03-13T12:05:53;11.00;;;6.70;;
77733;SDS011;66902;41.720;44.796;2023-03-13T12:08:26;14.50;;;6.50;;
77733;SDS011;66902;41.720;44.796;2023-03-13T12:11:02;11.50;;;6.50;;
77733;SDS011;66902;41.720;44.796;2023-03-13T12:13:35;13.30;;;5.10;;
77733;SDS011;66902;41.720;44.796;2023-03-13T12:16:09;21.60;;;7.00;;
77733;SDS011;66902;41.720;44.796;2023-03-13T12:18:42;13.70;;;6.30;;
77733;SDS011;66902;41.720;44.796;2023-03-13T12:21:16;19.00;;;7.60;;
77733;SDS011;66902;41.720;44.796;2023-03-13T12:23:51;17.20;;;6.90;;
77733;SDS011;66902;41.720;44.796;2023-03-13T12:26:29;13.50;;;6.70;;
77733;SDS011;66902;41.720;44.796;2023-03-13T12:29:06;10.60;;;5.40;;
77733;SDS011;66902;41.720;44.796;2023-03-13T12:31:42;18.30;;;5.90;;
77733;SDS011;66902;41.720;44.796;2023-03-13T12:34:19;15.60;;;5.90;;
77733;SDS011;66902;41.720;44.796;2023-03-13T12:36:53;14.60;;;6.20;;
77733;SDS011;66902;41.720;44.796;2023-03-13T12:39:29;11.30;;;6.40;;
77733;SDS011;66902;41.720;44.796;2023-03-13T12:44:49;9.40;;;6.00;;
77733;SDS011;66902;41.720;44.796;2023-03-13T12:47:22;13.90;;;6.40;;
77733;SDS011;66902;41.720;44.796;2023-03-13T12:52:57;14.20;;;6.40;;
77733;SDS011;66902;41.720;44.796;2023-03-13T12:55:56;15.30;;;7.10;;
77733;SDS011;66902;41.720;44.796;2023-03-13T12:58:44;14.00;;;6.90;;
77733;SDS011;66902;41.720;44.796;2023-03-13T13:01:20;16.20;;;7.10;;
77733;SDS011;66902;41.720;44.796;2023-03-13T13:03:57;14.30;;;6.30;;
77733;SDS011;66902;41.720;44.796;2023-03-13T13:06:30;14.50;;;6.80;;
77733;SDS011;66902;41.720;44.796;2023-03-13T13:09:21;7.80;;;6.50;;
77733;SDS011;66902;41.720;44.796;2023-03-13T13:11:53;14.90;;;6.20;;
77733;SDS011;66902;41.720;44.796;2023-03-13T13:17:38;15.10;;;6.40;;
77733;SDS011;66902;41.720;44.796;2023-03-13T13:23:29;8.90;;;6.00;;
77733;SDS011;66902;41.720;44.796;2023-03-13T13:32:39;14.00;;;7.90;;
77733;SDS011;66902;41.720;44.796;2023-03-13T13:35:23;9.40;;;6.30;;
77733;SDS011;66902;41.720;44.796;2023-03-13T13:41:23;20.30;;;7.30;;
77733;SDS011;66902;41.720;44.796;2023-03-13T13:46:53;10.30;;;6.90;;
77733;SDS011;66902;41.720;44.796;2023-03-13T13:49:28;9.50;;;6.40;;
77733;SDS011;66902;41.720;44.796;2023-03-13T13:54:59;11.20;;;8.00;;
77733;SDS011;66902;41.720;44.796;2023-03-13T13:57:33;10.40;;;7.50;;
77733;SDS011;66902;41.720;44.796;2023-03-13T14:00:19;13.40;;;8.20;;
77733;SDS011;66902;41.720;44.796;2023-03-13T14:02:54;10.10;;;7.70;;
77733;SDS011;66902;41.720;44.796;2023-03-13T14:05:25;14.20;;;8.60;;
77733;SDS011;66902;41.720;44.796;2023-03-13T14:07:57;14.50;;;7.40;;
77733;SDS011;66902;41.720;44.796;2023-03-13T14:10:30;8.20;;;7.40;;
77733;SDS011;66902;41.720;44.796;2023-03-13T14:13:11;14.50;;;8.60;;
77733;SDS011;66902;41.720;44.796;2023-03-13T14:15:43;19.00;;;13.70;;
77733;SDS011;66902;41.720;44.796;2023-03-13T14:18:17;13.90;;;9.40;;
77733;SDS011;66902;41.720;44.796;2023-03-13T14:23:42;10.90;;;8.20;;
77733;SDS011;66902;41.720;44.796;2023-03-13T14:26:13;8.40;;;6.80;;
77733;SDS011;66902;41.720;44.796;2023-03-13T14:28:46;12.20;;;7.60;;
77733;SDS011;66902;41.720;44.796;2023-03-13T14:31:22;14.80;;;7.60;;
77733;SDS011;66902;41.720;44.796;2023-03-13T14:33:55;12.30;;;7.10;;
77733;SDS011;66902;41.720;44.796;2023-03-13T14:36:28;11.70;;;7.70;;
77733;SDS011;66902;41.720;44.796;2023-03-13T14:39:00;11.30;;;7.80;;
77733;SDS011;66902;41.720;44.796;2023-03-13T14:41:31;8.80;;;7.60;;
77733;SDS011;66902;41.720;44.796;2023-03-13T14:44:04;17.50;;;8.50;;
77733;SDS011;66902;41.720;44.796;2023-03-13T14:46:41;9.80;;;6.60;;
77733;SDS011;66902;41.720;44.796;2023-03-13T14:49:14;16.60;;;8.50;;
77733;SDS011;66902;41.720;44.796;2023-03-13T14:51:46;11.30;;;7.40;;
77733;SDS011;66902;41.720;44.796;2023-03-13T14:54:25;13.30;;;8.50;;
77733;SDS011;66902;41.720;44.796;2023-03-13T14:57:12;14.10;;;8.10;;
77733;SDS011;66902;41.720;44.796;2023-03-13T14:59:44;17.90;;;9.30;;
77733;SDS011;66902;41.720;44.796;2023-03-13T15:02:21;13.10;;;7.40;;
77733;SDS011;66902;41.720;44.796;2023-03-13T15:04:56;10.70;;;7.90;;
77733;SDS011;66902;41.720;44.796;2023-03-13T15:07:34;13.90;;;9.40;;
77733;SDS011;66902;41.720;44.796;2023-03-13T15:10:18;12.80;;;9.70;;
77733;SDS011;66902;41.720;44.796;2023-03-13T15:12:50;13.20;;;9.30;;
77733;SDS011;66902;41.720;44.796;2023-03-13T15:15:20;11.40;;;7.70;;
77733;SDS011;66902;41.720;44.796;2023-03-13T15:17:51;14.50;;;8.10;;
77733;SDS011;66902;41.720;44.796;2023-03-13T15:20:21;9.90;;;7.30;;
77733;SDS011;66902;41.720;44.796;2023-03-13T15:22:51;10.60;;;7.10;;
77733;SDS011;66902;41.720;44.796;2023-03-13T15:25:22;16.10;;;7.90;;
77733;SDS011;66902;41.720;44.796;2023-03-13T15:27:52;13.50;;;8.50;;
77733;SDS011;66902;41.720;44.796;2023-03-13T15:30:22;10.10;;;8.30;;
77733;SDS011;66902;41.720;44.796;2023-03-13T15:32:53;18.10;;;8.00;;
77733;SDS011;66902;41.720;44.796;2023-03-13T15:35:25;13.00;;;8.40;;